sensor_id;sensor_type;location;lat;lon;timestamp;P1;durP1;ratioP1;P2;durP2;ratioP2
68923;SDS011;55961;52.156;20.942;2023-09-07T00:00:10;13.05;;;8.43;;
68923;SDS011;55961;52.156;20.942;2023-09-07T00:02:56;13.50;;;8.30;;
68923;SDS011;55961;52.156;20.942;2023-09-07T00:05:22;13.27;;;7.87;;
68923;SDS011;55961;52.156;20.942;2023-09-07T00:07:48;14.10;;;8.15;;
68923;SDS011;55961;52.156;20.942;2023-09-07T00:10:14;12.30;;;7.88;;
68923;SDS011;55961;52.156;20.942;2023-09-07T00:12:40;14.10;;;8.00;;
68923;SDS011;55961;52.156;20.942;2023-09-07T00:15:06;15.30;;;8.93;;
68923;SDS011;55961;52.156;20.942;2023-09-07T00:17:32;13.90;;;8.27;;
68923;SDS011;55961;52.156;20.942;2023-09-07T00:19:58;14.60;;;8.10;;
68923;SDS011;55961;52.156;20.942;2023-09-07T00:22:24;14.80;;;8.27;;
68923;SDS011;55961;52.156;20.942;2023-09-07T00:24:53;14.15;;;7.97;;
68923;SDS011;55961;52.156;20.942;2023-09-07T00:27:19;12.80;;;7.68;;
68923;SDS011;55961;52.156;20.942;2023-09-07T00:29:45;13.00;;;7.93;;
68923;SDS011;55961;52.156;20.942;2023-09-07T00:32:11;15.82;;;8.38;;
68923;SDS011;55961;52.156;20.942;2023-09-07T00:34:37;15.65;;;8.13;;
68923;SDS011;55961;52.156;20.942;2023-09-07T00:37:03;15.35;;;7.95;;
68923;SDS011;55961;52.156;20.942;2023-09-07T00:39:28;12.33;;;7.63;;
68923;SDS011;55961;52.156;20.942;2023-09-07T00:41:54;13.27;;;8.02;;
68923;SDS011;55961;52.156;20.942;2023-09-07T00:44:20;15.13;;;7.65;;
68923;SDS011;55961;52.156;20.942;2023-09-07T00:46:46;13.80;;;8.20;;
68923;SDS011;55961;52.156;20.942;2023-09-07T00:49:12;11.15;;;7.25;;
68923;SDS011;55961;52.156;20.942;2023-09-07T00:51:39;12.02;;;7.03;;
68923;SDS011;55961;52.156;20.942;2023-09-07T00:54:05;12.17;;;6.87;;
68923;SDS011;55961;52.156;20.942;2023-09-07T00:56:31;13.82;;;7.30;;
68923;SDS011;55961;52.156;20.942;2023-09-07T00:58:57;13.02;;;7.53;;
68923;SDS011;55961;52.156;20.942;2023-09-07T01:01:25;15.95;;;7.57;;
68923;SDS011;55961;52.156;20.942;2023-09-07T01:03:51;10.57;;;7.43;;
68923;SDS011;55961;52.156;20.942;2023-09-07T01:06:20;11.87;;;7.23;;
68923;SDS011;55961;52.156;20.942;2023-09-07T01:08:52;12.23;;;7.28;;
68923;SDS011;55961;52.156;20.942;2023-09-07T01:11:24;12.23;;;7.50;;
68923;SDS011;55961;52.156;20.942;2023-09-07T01:13:50;11.93;;;7.20;;
68923;SDS011;55961;52.156;20.942;2023-09-07T01:16:20;11.48;;;7.45;;
68923;SDS011;55961;52.156;20.942;2023-09-07T01:18:47;13.00;;;7.43;;
68923;SDS011;55961;52.156;20.942;2023-09-07T01:21:13;13.38;;;7.68;;
68923;SDS011;55961;52.156;20.942;2023-09-07T01:23:42;13.25;;;8.25;;
68923;SDS011;55961;52.156;20.942;2023-09-07T01:26:10;10.45;;;6.90;;
68923;SDS011;55961;52.156;20.942;2023-09-07T01:28:36;13.13;;;7.60;;
68923;SDS011;55961;52.156;20.942;2023-09-07T01:31:03;13.57;;;7.47;;
68923;SDS011;55961;52.156;20.942;2023-09-07T01:33:29;14.50;;;7.38;;
68923;SDS011;55961;52.156;20.942;2023-09-07T01:35:55;12.77;;;7.32;;
68923;SDS011;55961;52.156;20.942;2023-09-07T01:38:21;13.88;;;7.15;;
68923;SDS011;55961;52.156;20.942;2023-09-07T01:40:47;12.60;;;7.40;;
68923;SDS011;55961;52.156;20.942;2023-09-07T01:43:13;11.90;;;7.30;;
68923;SDS011;55961;52.156;20.942;2023-09-07T01:45:39;13.35;;;7.55;;
68923;SDS011;55961;52.156;20.942;2023-09-07T01:48:07;12.40;;;7.25;;
68923;SDS011;55961;52.156;20.942;2023-09-07T01:50:37;15.00;;;7.67;;
68923;SDS011;55961;52.156;20.942;2023-09-07T01:53:03;12.00;;;7.03;;
68923;SDS011;55961;52.156;20.942;2023-09-07T01:55:30;14.25;;;7.28;;
68923;SDS011;55961;52.156;20.942;2023-09-07T01:57:56;12.90;;;7.25;;
68923;SDS011;55961;52.156;20.942;2023-09-07T02:00:22;11.85;;;7.20;;
68923;SDS011;55961;52.156;20.942;2023-09-07T02:02:48;15.43;;;7.70;;
68923;SDS011;55961;52.156;20.942;2023-09-07T02:05:14;11.13;;;7.40;;
68923;SDS011;55961;52.156;20.942;2023-09-07T02:07:41;11.77;;;7.32;;
68923;SDS011;55961;52.156;20.942;2023-09-07T02:10:08;17.00;;;8.32;;
68923;SDS011;55961;52.156;20.942;2023-09-07T02:12:34;15.00;;;8.23;;
68923;SDS011;55961;52.156;20.942;2023-09-07T02:15:01;14.98;;;7.90;;
68923;SDS011;55961;52.156;20.942;2023-09-07T02:17:28;14.00;;;7.68;;
68923;SDS011;55961;52.156;20.942;2023-09-07T02:19:55;14.70;;;7.70;;
68923;SDS011;55961;52.156;20.942;2023-09-07T02:22:21;14.13;;;8.00;;
68923;SDS011;55961;52.156;20.942;2023-09-07T02:24:47;15.53;;;7.73;;
68923;SDS011;55961;52.156;20.942;2023-09-07T02:27:13;13.68;;;8.05;;
68923;SDS011;55961;52.156;20.942;2023-09-07T02:29:39;11.50;;;7.90;;
68923;SDS011;55961;52.156;20.942;2023-09-07T02:32:05;16.77;;;8.30;;
68923;SDS011;55961;52.156;20.942;2023-09-07T02:34:32;13.48;;;7.57;;
68923;SDS011;55961;52.156;20.942;2023-09-07T02:37:01;12.30;;;8.50;;
68923;SDS011;55961;52.156;20.942;2023-09-07T02:39:28;12.13;;;7.38;;
68923;SDS011;55961;52.156;20.942;2023-09-07T02:41:54;12.85;;;7.53;;
68923;SDS011;55961;52.156;20.942;2023-09-07T02:44:20;14.03;;;8.00;;
68923;SDS011;55961;52.156;20.942;2023-09-07T02:46:46;14.50;;;7.82;;
68923;SDS011;55961;52.156;20.942;2023-09-07T02:49:12;15.13;;;8.02;;
68923;SDS011;55961;52.156;20.942;2023-09-07T02:51:38;13.98;;;8.20;;
68923;SDS011;55961;52.156;20.942;2023-09-07T02:54:04;17.60;;;8.57;;
68923;SDS011;55961;52.156;20.942;2023-09-07T02:56:30;15.45;;;7.95;;
68923;SDS011;55961;52.156;20.942;2023-09-07T02:58:56;15.00;;;7.93;;
68923;SDS011;55961;52.156;20.942;2023-09-07T03:01:22;12.53;;;7.40;;
68923;SDS011;55961;52.156;20.942;2023-09-07T03:03:48;14.10;;;7.80;;
68923;SDS011;55961;52.156;20.942;2023-09-07T03:06:14;16.75;;;8.40;;
68923;SDS011;55961;52.156;20.942;2023-09-07T03:08:42;15.45;;;9.18;;
68923;SDS011;55961;52.156;20.942;2023-09-07T03:11:09;14.77;;;8.27;;
68923;SDS011;55961;52.156;20.942;2023-09-07T03:13:35;13.70;;;8.37;;
68923;SDS011;55961;52.156;20.942;2023-09-07T03:16:02;17.45;;;8.20;;
68923;SDS011;55961;52.156;20.942;2023-09-07T03:18:29;18.52;;;8.82;;
68923;SDS011;55961;52.156;20.942;2023-09-07T03:20:56;17.90;;;7.95;;
68923;SDS011;55961;52.156;20.942;2023-09-07T03:23:24;16.52;;;8.32;;
68923;SDS011;55961;52.156;20.942;2023-09-07T03:25:50;14.20;;;7.43;;
68923;SDS011;55961;52.156;20.942;2023-09-07T03:28:16;14.05;;;7.88;;
68923;SDS011;55961;52.156;20.942;2023-09-07T03:30:42;14.43;;;7.95;;
68923;SDS011;55961;52.156;20.942;2023-09-07T03:33:08;13.50;;;7.63;;
68923;SDS011;55961;52.156;20.942;2023-09-07T03:35:34;14.85;;;8.43;;
68923;SDS011;55961;52.156;20.942;2023-09-07T03:38:00;16.52;;;9.23;;
68923;SDS011;55961;52.156;20.942;2023-09-07T03:40:26;17.23;;;9.40;;
68923;SDS011;55961;52.156;20.942;2023-09-07T03:42:52;15.82;;;8.90;;
68923;SDS011;55961;52.156;20.942;2023-09-07T03:45:18;16.88;;;8.80;;
68923;SDS011;55961;52.156;20.942;2023-09-07T03:47:44;16.58;;;8.32;;
68923;SDS011;55961;52.156;20.942;2023-09-07T03:50:10;13.03;;;8.40;;
68923;SDS011;55961;52.156;20.942;2023-09-07T03:52:36;15.15;;;8.48;;
68923;SDS011;55961;52.156;20.942;2023-09-07T03:55:02;13.82;;;8.63;;
68923;SDS011;55961;52.156;20.942;2023-09-07T03:57:28;13.87;;;7.97;;
68923;SDS011;55961;52.156;20.942;2023-09-07T03:59:55;18.67;;;8.50;;
68923;SDS011;55961;52.156;20.942;2023-09-07T04:02:22;15.10;;;7.85;;
68923;SDS011;55961;52.156;20.942;2023-09-07T04:04:49;16.15;;;8.20;;
68923;SDS011;55961;52.156;20.942;2023-09-07T04:07:15;16.07;;;8.23;;
68923;SDS011;55961;52.156;20.942;2023-09-07T04:09:42;13.05;;;7.20;;
68923;SDS011;55961;52.156;20.942;2023-09-07T04:12:09;15.38;;;8.18;;
68923;SDS011;55961;52.156;20.942;2023-09-07T04:14:34;14.60;;;8.40;;
68923;SDS011;55961;52.156;20.942;2023-09-07T04:17:01;17.00;;;8.88;;
68923;SDS011;55961;52.156;20.942;2023-09-07T04:19:26;14.47;;;7.90;;
68923;SDS011;55961;52.156;20.942;2023-09-07T04:21:53;17.95;;;8.43;;
68923;SDS011;55961;52.156;20.942;2023-09-07T04:24:19;14.38;;;7.82;;
68923;SDS011;55961;52.156;20.942;2023-09-07T04:26:45;14.60;;;8.35;;
68923;SDS011;55961;52.156;20.942;2023-09-07T04:29:12;14.87;;;8.10;;
68923;SDS011;55961;52.156;20.942;2023-09-07T04:31:39;13.82;;;8.05;;
68923;SDS011;55961;52.156;20.942;2023-09-07T04:34:04;14.40;;;8.43;;
68923;SDS011;55961;52.156;20.942;2023-09-07T04:36:30;12.63;;;7.60;;
68923;SDS011;55961;52.156;20.942;2023-09-07T04:38:56;13.73;;;8.03;;
68923;SDS011;55961;52.156;20.942;2023-09-07T04:41:23;13.02;;;8.95;;
68923;SDS011;55961;52.156;20.942;2023-09-07T04:43:48;13.07;;;8.95;;
68923;SDS011;55961;52.156;20.942;2023-09-07T04:46:14;16.40;;;8.45;;
68923;SDS011;55961;52.156;20.942;2023-09-07T04:48:41;18.07;;;9.27;;
68923;SDS011;55961;52.156;20.942;2023-09-07T04:51:07;15.23;;;8.55;;
68923;SDS011;55961;52.156;20.942;2023-09-07T04:53:35;13.52;;;9.25;;
68923;SDS011;55961;52.156;20.942;2023-09-07T04:56:03;16.45;;;9.23;;
68923;SDS011;55961;52.156;20.942;2023-09-07T04:58:30;16.70;;;9.70;;
68923;SDS011;55961;52.156;20.942;2023-09-07T05:01:11;16.98;;;11.55;;
68923;SDS011;55961;52.156;20.942;2023-09-07T05:03:37;18.50;;;10.10;;
68923;SDS011;55961;52.156;20.942;2023-09-07T05:06:05;18.08;;;10.05;;
68923;SDS011;55961;52.156;20.942;2023-09-07T05:08:31;20.40;;;10.20;;
68923;SDS011;55961;52.156;20.942;2023-09-07T05:10:59;18.93;;;10.33;;
68923;SDS011;55961;52.156;20.942;2023-09-07T05:13:26;19.20;;;10.82;;
68923;SDS011;55961;52.156;20.942;2023-09-07T05:15:53;21.20;;;10.82;;
68923;SDS011;55961;52.156;20.942;2023-09-07T05:18:20;17.13;;;10.43;;
68923;SDS011;55961;52.156;20.942;2023-09-07T05:20:46;18.70;;;11.10;;
68923;SDS011;55961;52.156;20.942;2023-09-07T05:23:17;19.50;;;11.90;;
68923;SDS011;55961;52.156;20.942;2023-09-07T05:25:51;20.70;;;12.55;;
68923;SDS011;55961;52.156;20.942;2023-09-07T05:28:18;22.05;;;12.23;;
68923;SDS011;55961;52.156;20.942;2023-09-07T05:30:45;21.42;;;13.27;;
68923;SDS011;55961;52.156;20.942;2023-09-07T05:33:13;24.83;;;14.05;;
68923;SDS011;55961;52.156;20.942;2023-09-07T05:35:40;22.07;;;14.37;;
68923;SDS011;55961;52.156;20.942;2023-09-07T05:38:11;24.70;;;15.25;;
68923;SDS011;55961;52.156;20.942;2023-09-07T05:40:37;23.88;;;15.18;;
68923;SDS011;55961;52.156;20.942;2023-09-07T05:43:05;29.15;;;15.48;;
68923;SDS011;55961;52.156;20.942;2023-09-07T05:45:33;27.80;;;15.90;;
68923;SDS011;55961;52.156;20.942;2023-09-07T05:48:04;25.90;;;15.45;;
68923;SDS011;55961;52.156;20.942;2023-09-07T05:50:34;23.65;;;15.80;;
68923;SDS011;55961;52.156;20.942;2023-09-07T05:53:01;25.70;;;16.70;;
68923;SDS011;55961;52.156;20.942;2023-09-07T05:55:27;28.30;;;16.75;;
68923;SDS011;55961;52.156;20.942;2023-09-07T05:57:54;26.80;;;15.93;;
68923;SDS011;55961;52.156;20.942;2023-09-07T06:00:21;28.05;;;16.20;;
68923;SDS011;55961;52.156;20.942;2023-09-07T06:02:47;25.73;;;16.80;;
68923;SDS011;55961;52.156;20.942;2023-09-07T06:05:13;30.35;;;16.67;;
68923;SDS011;55961;52.156;20.942;2023-09-07T06:07:39;25.38;;;16.92;;
68923;SDS011;55961;52.156;20.942;2023-09-07T06:10:05;25.33;;;16.30;;
68923;SDS011;55961;52.156;20.942;2023-09-07T06:12:32;26.02;;;16.95;;
68923;SDS011;55961;52.156;20.942;2023-09-07T06:15:01;25.77;;;17.55;;
68923;SDS011;55961;52.156;20.942;2023-09-07T06:17:28;28.17;;;17.85;;
68923;SDS011;55961;52.156;20.942;2023-09-07T06:19:55;29.47;;;17.10;;
68923;SDS011;55961;52.156;20.942;2023-09-07T06:22:22;28.30;;;17.67;;
68923;SDS011;55961;52.156;20.942;2023-09-07T06:24:48;25.17;;;16.80;;
68923;SDS011;55961;52.156;20.942;2023-09-07T06:27:15;27.67;;;17.67;;
68923;SDS011;55961;52.156;20.942;2023-09-07T06:29:40;30.07;;;17.10;;
68923;SDS011;55961;52.156;20.942;2023-09-07T06:32:06;30.85;;;17.05;;
68923;SDS011;55961;52.156;20.942;2023-09-07T06:34:32;27.38;;;17.08;;
68923;SDS011;55961;52.156;20.942;2023-09-07T06:36:58;29.93;;;17.03;;
68923;SDS011;55961;52.156;20.942;2023-09-07T06:39:24;27.83;;;17.88;;
68923;SDS011;55961;52.156;20.942;2023-09-07T06:41:50;29.92;;;16.73;;
68923;SDS011;55961;52.156;20.942;2023-09-07T06:44:16;28.47;;;17.30;;
68923;SDS011;55961;52.156;20.942;2023-09-07T06:46:42;26.17;;;16.92;;
68923;SDS011;55961;52.156;20.942;2023-09-07T06:49:08;29.33;;;17.20;;
68923;SDS011;55961;52.156;20.942;2023-09-07T06:51:34;26.88;;;16.85;;
68923;SDS011;55961;52.156;20.942;2023-09-07T06:53:59;26.93;;;16.00;;
68923;SDS011;55961;52.156;20.942;2023-09-07T06:56:26;28.27;;;17.23;;
68923;SDS011;55961;52.156;20.942;2023-09-07T06:58:52;26.45;;;17.38;;
68923;SDS011;55961;52.156;20.942;2023-09-07T07:01:18;28.80;;;17.52;;
68923;SDS011;55961;52.156;20.942;2023-09-07T07:03:44;28.03;;;17.60;;
68923;SDS011;55961;52.156;20.942;2023-09-07T07:06:10;26.65;;;17.60;;
68923;SDS011;55961;52.156;20.942;2023-09-07T07:08:36;32.47;;;18.77;;
68923;SDS011;55961;52.156;20.942;2023-09-07T07:11:02;30.70;;;17.85;;
68923;SDS011;55961;52.156;20.942;2023-09-07T07:13:28;25.90;;;16.57;;
68923;SDS011;55961;52.156;20.942;2023-09-07T07:15:54;30.02;;;17.63;;
68923;SDS011;55961;52.156;20.942;2023-09-07T07:18:20;25.38;;;16.15;;
68923;SDS011;55961;52.156;20.942;2023-09-07T07:20:46;27.70;;;16.47;;
68923;SDS011;55961;52.156;20.942;2023-09-07T07:23:12;27.25;;;16.60;;
68923;SDS011;55961;52.156;20.942;2023-09-07T07:25:38;25.02;;;16.98;;
68923;SDS011;55961;52.156;20.942;2023-09-07T07:28:04;27.00;;;16.20;;
68923;SDS011;55961;52.156;20.942;2023-09-07T07:30:35;28.98;;;17.17;;
68923;SDS011;55961;52.156;20.942;2023-09-07T07:33:02;28.70;;;15.82;;
68923;SDS011;55961;52.156;20.942;2023-09-07T07:35:32;25.55;;;16.83;;
68923;SDS011;55961;52.156;20.942;2023-09-07T07:37:59;28.60;;;16.85;;
68923;SDS011;55961;52.156;20.942;2023-09-07T07:40:26;24.57;;;15.63;;
68923;SDS011;55961;52.156;20.942;2023-09-07T07:42:52;31.25;;;16.80;;
68923;SDS011;55961;52.156;20.942;2023-09-07T07:45:18;24.40;;;15.77;;
68923;SDS011;55961;52.156;20.942;2023-09-07T07:47:45;26.00;;;15.63;;
68923;SDS011;55961;52.156;20.942;2023-09-07T07:50:12;24.30;;;15.77;;
68923;SDS011;55961;52.156;20.942;2023-09-07T07:52:37;26.63;;;15.45;;
68923;SDS011;55961;52.156;20.942;2023-09-07T07:55:04;24.35;;;15.35;;
68923;SDS011;55961;52.156;20.942;2023-09-07T07:57:31;28.05;;;15.52;;
68923;SDS011;55961;52.156;20.942;2023-09-07T07:59:57;30.40;;;15.83;;
68923;SDS011;55961;52.156;20.942;2023-09-07T08:02:23;24.23;;;15.57;;
68923;SDS011;55961;52.156;20.942;2023-09-07T08:04:49;28.10;;;15.80;;
68923;SDS011;55961;52.156;20.942;2023-09-07T08:07:16;20.90;;;14.52;;
68923;SDS011;55961;52.156;20.942;2023-09-07T08:09:42;29.23;;;14.70;;
68923;SDS011;55961;52.156;20.942;2023-09-07T08:12:08;23.00;;;14.47;;
68923;SDS011;55961;52.156;20.942;2023-09-07T08:14:34;23.73;;;14.95;;
68923;SDS011;55961;52.156;20.942;2023-09-07T08:17:00;28.02;;;14.93;;
68923;SDS011;55961;52.156;20.942;2023-09-07T08:19:27;27.83;;;14.10;;
68923;SDS011;55961;52.156;20.942;2023-09-07T08:21:59;24.17;;;14.73;;
68923;SDS011;55961;52.156;20.942;2023-09-07T08:24:25;25.85;;;14.75;;
68923;SDS011;55961;52.156;20.942;2023-09-07T08:26:50;24.92;;;14.25;;
68923;SDS011;55961;52.156;20.942;2023-09-07T08:29:19;24.33;;;14.63;;
68923;SDS011;55961;52.156;20.942;2023-09-07T08:31:51;23.17;;;14.83;;
68923;SDS011;55961;52.156;20.942;2023-09-07T08:34:20;23.40;;;13.30;;
68923;SDS011;55961;52.156;20.942;2023-09-07T08:36:47;23.80;;;12.82;;
68923;SDS011;55961;52.156;20.942;2023-09-07T08:39:15;23.25;;;13.35;;
68923;SDS011;55961;52.156;20.942;2023-09-07T08:41:42;20.75;;;13.38;;
68923;SDS011;55961;52.156;20.942;2023-09-07T08:44:09;19.83;;;12.90;;
68923;SDS011;55961;52.156;20.942;2023-09-07T08:46:39;25.27;;;11.95;;
68923;SDS011;55961;52.156;20.942;2023-09-07T08:49:06;24.00;;;11.43;;
68923;SDS011;55961;52.156;20.942;2023-09-07T08:51:34;21.70;;;10.38;;
68923;SDS011;55961;52.156;20.942;2023-09-07T08:54:07;19.08;;;10.95;;
68923;SDS011;55961;52.156;20.942;2023-09-07T08:56:35;22.23;;;12.83;;
68923;SDS011;55961;52.156;20.942;2023-09-07T08:59:01;19.33;;;11.90;;
68923;SDS011;55961;52.156;20.942;2023-09-07T09:01:28;16.58;;;11.20;;
68923;SDS011;55961;52.156;20.942;2023-09-07T09:03:57;19.10;;;11.40;;
68923;SDS011;55961;52.156;20.942;2023-09-07T09:06:23;17.75;;;10.57;;
68923;SDS011;55961;52.156;20.942;2023-09-07T09:08:50;16.07;;;10.00;;
68923;SDS011;55961;52.156;20.942;2023-09-07T09:11:18;15.82;;;10.90;;
68923;SDS011;55961;52.156;20.942;2023-09-07T09:13:45;16.08;;;10.55;;
68923;SDS011;55961;52.156;20.942;2023-09-07T09:16:11;14.85;;;9.63;;
68923;SDS011;55961;52.156;20.942;2023-09-07T09:18:47;21.08;;;11.30;;
68923;SDS011;55961;52.156;20.942;2023-09-07T09:21:18;14.40;;;9.57;;
68923;SDS011;55961;52.156;20.942;2023-09-07T09:23:47;18.08;;;10.88;;
68923;SDS011;55961;52.156;20.942;2023-09-07T09:26:15;16.45;;;8.98;;
68923;SDS011;55961;52.156;20.942;2023-09-07T09:28:41;16.13;;;8.88;;
68923;SDS011;55961;52.156;20.942;2023-09-07T09:31:08;16.55;;;9.35;;
68923;SDS011;55961;52.156;20.942;2023-09-07T09:33:41;12.93;;;7.83;;
68923;SDS011;55961;52.156;20.942;2023-09-07T09:36:08;15.60;;;7.68;;
68923;SDS011;55961;52.156;20.942;2023-09-07T09:38:34;13.63;;;7.88;;
68923;SDS011;55961;52.156;20.942;2023-09-07T09:41:01;12.95;;;7.13;;
68923;SDS011;55961;52.156;20.942;2023-09-07T09:43:29;11.63;;;6.55;;
68923;SDS011;55961;52.156;20.942;2023-09-07T09:45:55;9.63;;;5.30;;
68923;SDS011;55961;52.156;20.942;2023-09-07T09:48:23;11.25;;;4.88;;
68923;SDS011;55961;52.156;20.942;2023-09-07T09:50:49;10.18;;;6.25;;
68923;SDS011;55961;52.156;20.942;2023-09-07T09:53:16;10.65;;;5.50;;
68923;SDS011;55961;52.156;20.942;2023-09-07T09:55:48;11.40;;;5.50;;
68923;SDS011;55961;52.156;20.942;2023-09-07T09:58:17;11.50;;;5.20;;
68923;SDS011;55961;52.156;20.942;2023-09-07T10:00:44;9.40;;;5.30;;
68923;SDS011;55961;52.156;20.942;2023-09-07T10:03:32;11.15;;;5.47;;
68923;SDS011;55961;52.156;20.942;2023-09-07T10:06:09;9.48;;;6.20;;
68923;SDS011;55961;52.156;20.942;2023-09-07T10:08:59;10.00;;;5.83;;
68923;SDS011;55961;52.156;20.942;2023-09-07T10:11:39;10.82;;;5.38;;
68923;SDS011;55961;52.156;20.942;2023-09-07T10:14:06;10.35;;;5.70;;
68923;SDS011;55961;52.156;20.942;2023-09-07T10:16:42;13.07;;;5.82;;
68923;SDS011;55961;52.156;20.942;2023-09-07T10:19:15;13.55;;;7.47;;
68923;SDS011;55961;52.156;20.942;2023-09-07T10:21:42;10.53;;;5.27;;
68923;SDS011;55961;52.156;20.942;2023-09-07T10:24:08;8.23;;;4.78;;
68923;SDS011;55961;52.156;20.942;2023-09-07T10:26:34;8.35;;;4.50;;
68923;SDS011;55961;52.156;20.942;2023-09-07T10:29:00;10.95;;;5.78;;
68923;SDS011;55961;52.156;20.942;2023-09-07T10:31:29;8.63;;;5.07;;
68923;SDS011;55961;52.156;20.942;2023-09-07T10:34:08;10.20;;;5.13;;
68923;SDS011;55961;52.156;20.942;2023-09-07T10:36:37;9.60;;;5.10;;
68923;SDS011;55961;52.156;20.942;2023-09-07T10:39:04;8.80;;;5.50;;
68923;SDS011;55961;52.156;20.942;2023-09-07T10:41:41;9.35;;;5.40;;
68923;SDS011;55961;52.156;20.942;2023-09-07T10:44:08;11.17;;;5.43;;
68923;SDS011;55961;52.156;20.942;2023-09-07T10:46:38;7.78;;;5.20;;
68923;SDS011;55961;52.156;20.942;2023-09-07T10:49:08;8.23;;;5.63;;
68923;SDS011;55961;52.156;20.942;2023-09-07T10:51:46;9.52;;;5.20;;
68923;SDS011;55961;52.156;20.942;2023-09-07T10:54:16;7.32;;;5.32;;
68923;SDS011;55961;52.156;20.942;2023-09-07T10:56:43;8.90;;;5.80;;
68923;SDS011;55961;52.156;20.942;2023-09-07T10:59:10;7.72;;;5.07;;
68923;SDS011;55961;52.156;20.942;2023-09-07T11:01:38;9.00;;;5.05;;
68923;SDS011;55961;52.156;20.942;2023-09-07T11:04:04;8.07;;;4.93;;
68923;SDS011;55961;52.156;20.942;2023-09-07T11:06:30;9.30;;;4.90;;
68923;SDS011;55961;52.156;20.942;2023-09-07T11:09:00;7.73;;;4.80;;
68923;SDS011;55961;52.156;20.942;2023-09-07T11:11:29;6.80;;;4.93;;
68923;SDS011;55961;52.156;20.942;2023-09-07T11:13:58;8.25;;;4.93;;
68923;SDS011;55961;52.156;20.942;2023-09-07T11:16:25;7.47;;;4.90;;
68923;SDS011;55961;52.156;20.942;2023-09-07T11:18:52;7.78;;;4.75;;
68923;SDS011;55961;52.156;20.942;2023-09-07T11:21:19;6.73;;;4.80;;
68923;SDS011;55961;52.156;20.942;2023-09-07T11:23:46;7.03;;;4.70;;
68923;SDS011;55961;52.156;20.942;2023-09-07T11:26:12;8.30;;;5.10;;
68923;SDS011;55961;52.156;20.942;2023-09-07T11:28:38;9.93;;;5.13;;
68923;SDS011;55961;52.156;20.942;2023-09-07T11:31:06;6.73;;;4.60;;
68923;SDS011;55961;52.156;20.942;2023-09-07T11:33:32;7.85;;;5.10;;
68923;SDS011;55961;52.156;20.942;2023-09-07T11:35:58;7.18;;;4.82;;
68923;SDS011;55961;52.156;20.942;2023-09-07T11:38:28;7.93;;;4.25;;
68923;SDS011;55961;52.156;20.942;2023-09-07T11:40:55;7.68;;;4.82;;
68923;SDS011;55961;52.156;20.942;2023-09-07T11:43:21;6.73;;;4.43;;
68923;SDS011;55961;52.156;20.942;2023-09-07T11:45:48;7.03;;;4.20;;
68923;SDS011;55961;52.156;20.942;2023-09-07T11:48:15;8.68;;;4.10;;
68923;SDS011;55961;52.156;20.942;2023-09-07T11:50:41;8.40;;;4.65;;
68923;SDS011;55961;52.156;20.942;2023-09-07T11:53:07;8.80;;;4.43;;
68923;SDS011;55961;52.156;20.942;2023-09-07T11:55:33;7.55;;;4.05;;
68923;SDS011;55961;52.156;20.942;2023-09-07T11:58:00;7.43;;;4.28;;
68923;SDS011;55961;52.156;20.942;2023-09-07T12:00:27;9.52;;;4.95;;
68923;SDS011;55961;52.156;20.942;2023-09-07T12:02:53;7.88;;;4.18;;
68923;SDS011;55961;52.156;20.942;2023-09-07T12:05:19;7.13;;;4.40;;
68923;SDS011;55961;52.156;20.942;2023-09-07T12:07:45;6.57;;;4.28;;
68923;SDS011;55961;52.156;20.942;2023-09-07T12:10:12;10.93;;;3.70;;
68923;SDS011;55961;52.156;20.942;2023-09-07T12:12:41;8.85;;;4.40;;
68923;SDS011;55961;52.156;20.942;2023-09-07T12:15:07;8.87;;;4.50;;
68923;SDS011;55961;52.156;20.942;2023-09-07T12:17:34;8.02;;;4.63;;
68923;SDS011;55961;52.156;20.942;2023-09-07T12:20:00;7.80;;;3.92;;
68923;SDS011;55961;52.156;20.942;2023-09-07T12:22:26;10.27;;;5.07;;
68923;SDS011;55961;52.156;20.942;2023-09-07T12:24:52;7.53;;;4.20;;
68923;SDS011;55961;52.156;20.942;2023-09-07T12:27:18;7.32;;;4.05;;
68923;SDS011;55961;52.156;20.942;2023-09-07T12:29:44;6.18;;;4.40;;
68923;SDS011;55961;52.156;20.942;2023-09-07T12:32:12;10.40;;;4.53;;
68923;SDS011;55961;52.156;20.942;2023-09-07T12:34:41;7.13;;;4.50;;
68923;SDS011;55961;52.156;20.942;2023-09-07T12:37:07;9.67;;;4.60;;
68923;SDS011;55961;52.156;20.942;2023-09-07T12:39:33;7.90;;;4.53;;
68923;SDS011;55961;52.156;20.942;2023-09-07T12:41:59;8.13;;;4.75;;
68923;SDS011;55961;52.156;20.942;2023-09-07T12:44:25;7.77;;;4.60;;
68923;SDS011;55961;52.156;20.942;2023-09-07T12:46:51;8.83;;;4.77;;
68923;SDS011;55961;52.156;20.942;2023-09-07T12:49:16;6.03;;;4.28;;
68923;SDS011;55961;52.156;20.942;2023-09-07T12:51:43;8.20;;;4.25;;
68923;SDS011;55961;52.156;20.942;2023-09-07T12:54:10;10.25;;;4.80;;
68923;SDS011;55961;52.156;20.942;2023-09-07T12:56:36;7.30;;;4.50;;
68923;SDS011;55961;52.156;20.942;2023-09-07T12:59:02;8.45;;;4.65;;
68923;SDS011;55961;52.156;20.942;2023-09-07T13:01:29;6.55;;;4.70;;
68923;SDS011;55961;52.156;20.942;2023-09-07T13:03:56;9.45;;;4.13;;
68923;SDS011;55961;52.156;20.942;2023-09-07T13:06:22;7.00;;;4.10;;
68923;SDS011;55961;52.156;20.942;2023-09-07T13:08:48;9.52;;;4.03;;
68923;SDS011;55961;52.156;20.942;2023-09-07T13:11:14;10.80;;;4.18;;
68923;SDS011;55961;52.156;20.942;2023-09-07T13:13:40;6.70;;;4.00;;
68923;SDS011;55961;52.156;20.942;2023-09-07T13:16:06;6.18;;;4.10;;
68923;SDS011;55961;52.156;20.942;2023-09-07T13:18:31;7.40;;;4.43;;
68923;SDS011;55961;52.156;20.942;2023-09-07T13:20:58;6.43;;;4.13;;
68923;SDS011;55961;52.156;20.942;2023-09-07T13:23:27;5.60;;;3.80;;
68923;SDS011;55961;52.156;20.942;2023-09-07T13:25:56;9.10;;;4.00;;
68923;SDS011;55961;52.156;20.942;2023-09-07T13:28:23;7.38;;;3.83;;
68923;SDS011;55961;52.156;20.942;2023-09-07T13:30:52;11.45;;;3.60;;
68923;SDS011;55961;52.156;20.942;2023-09-07T13:33:18;7.63;;;4.00;;
68923;SDS011;55961;52.156;20.942;2023-09-07T13:35:45;6.37;;;3.57;;
68923;SDS011;55961;52.156;20.942;2023-09-07T13:38:10;5.13;;;3.70;;
68923;SDS011;55961;52.156;20.942;2023-09-07T13:40:37;5.35;;;3.20;;
68923;SDS011;55961;52.156;20.942;2023-09-07T13:43:02;6.57;;;3.50;;
68923;SDS011;55961;52.156;20.942;2023-09-07T13:45:29;6.07;;;3.38;;
68923;SDS011;55961;52.156;20.942;2023-09-07T13:47:55;5.90;;;3.25;;
68923;SDS011;55961;52.156;20.942;2023-09-07T13:50:21;6.05;;;3.55;;
68923;SDS011;55961;52.156;20.942;2023-09-07T13:52:48;8.47;;;4.27;;
68923;SDS011;55961;52.156;20.942;2023-09-07T13:55:14;8.23;;;3.75;;
68923;SDS011;55961;52.156;20.942;2023-09-07T13:57:40;6.18;;;3.50;;
68923;SDS011;55961;52.156;20.942;2023-09-07T14:00:06;8.57;;;3.42;;
68923;SDS011;55961;52.156;20.942;2023-09-07T14:02:32;6.83;;;3.40;;
68923;SDS011;55961;52.156;20.942;2023-09-07T14:04:58;7.00;;;3.70;;
68923;SDS011;55961;52.156;20.942;2023-09-07T14:07:24;6.05;;;3.00;;
68923;SDS011;55961;52.156;20.942;2023-09-07T14:09:54;7.20;;;3.35;;
68923;SDS011;55961;52.156;20.942;2023-09-07T14:12:20;4.30;;;2.80;;
68923;SDS011;55961;52.156;20.942;2023-09-07T14:14:47;7.55;;;3.00;;
68923;SDS011;55961;52.156;20.942;2023-09-07T14:17:14;5.53;;;3.53;;
68923;SDS011;55961;52.156;20.942;2023-09-07T14:19:40;8.40;;;3.40;;